createdAt,value
2018-07-08T00:00:06.525Z,68.10
2018-07-08T00:02:35.191Z,69.20
2018-07-08T00:05:03.843Z,68.70
2018-07-08T00:07:32.472Z,68.60
2018-07-08T00:10:01.597Z,68.20
2018-07-08T00:12:30.167Z,68.90
2018-07-08T00:14:58.747Z,68.90
2018-07-08T00:17:27.374Z,68.50
2018-07-08T00:19:55.927Z,68.50
2018-07-08T00:22:24.513Z,69.00
2018-07-08T00:24:53.063Z,68.40
2018-07-08T00:27:21.661Z,69.30
2018-07-08T00:29:50.315Z,70.40
2018-07-08T00:32:18.888Z,69.50
2018-07-08T00:34:47.456Z,69.40
2018-07-08T00:37:16.059Z,69.50
2018-07-08T00:39:44.702Z,69.80
2018-07-08T00:42:13.287Z,69.80
2018-07-08T00:44:41.857Z,70.20
2018-07-08T00:47:10.451Z,70.10
2018-07-08T00:49:39.031Z,70.70
2018-07-08T00:52:07.741Z,70.50
2018-07-08T00:54:36.573Z,70.60
2018-07-08T00:57:05.783Z,71.40
2018-07-08T00:59:34.380Z,70.60
2018-07-08T01:02:03.074Z,70.60
2018-07-08T01:04:31.657Z,71.20
2018-07-08T01:07:00.285Z,71.20
2018-07-08T01:09:28.845Z,71.00
2018-07-08T01:11:57.400Z,71.20
2018-07-08T01:14:25.972Z,70.70
2018-07-08T01:16:54.563Z,71.50
2018-07-08T01:19:23.164Z,71.40
2018-07-08T01:21:51.731Z,72.60
2018-07-08T01:24:20.311Z,71.90
2018-07-08T01:26:48.915Z,72.00
2018-07-08T01:29:17.473Z,72.30
2018-07-08T01:31:46.068Z,72.20
2018-07-08T01:34:14.732Z,72.10
2018-07-08T01:36:43.418Z,72.40
2018-07-08T01:39:11.974Z,72.70
2018-07-08T01:41:40.543Z,72.50
2018-07-08T01:44:09.154Z,72.70
2018-07-08T01:46:37.766Z,72.80
2018-07-08T01:49:06.383Z,73.20
2018-07-08T01:51:34.954Z,73.50
2018-07-08T01:54:03.779Z,73.40
2018-07-08T01:56:32.474Z,73.50
2018-07-08T01:59:01.055Z,73.50
2018-07-08T02:03:57.837Z,74.00
2018-07-08T02:06:26.475Z,74.70
2018-07-08T02:08:55.104Z,74.40
2018-07-08T02:11:24.732Z,74.50
2018-07-08T02:13:54.024Z,75.10
2018-07-08T02:16:22.761Z,75.10
2018-07-08T02:18:51.332Z,74.80
2018-07-08T02:21:19.978Z,74.60
2018-07-08T02:23:48.563Z,74.80
2018-07-08T02:26:17.112Z,75.30
2018-07-08T02:28:45.679Z,74.60
2018-07-08T02:31:14.231Z,74.40
2018-07-08T02:33:42.855Z,74.50
2018-07-08T02:36:11.423Z,74.50
2018-07-08T02:38:39.983Z,74.10
2018-07-08T02:41:08.556Z,74.00
2018-07-08T02:43:37.138Z,73.30
2018-07-08T02:46:06.009Z,74.00
2018-07-08T02:48:34.584Z,73.60
2018-07-08T02:51:03.196Z,73.20
2018-07-08T02:53:31.782Z,72.40
2018-07-08T02:56:00.360Z,72.90
2018-07-08T02:58:28.947Z,72.30
2018-07-08T03:00:57.521Z,71.30
2018-07-08T03:03:26.088Z,71.30
2018-07-08T03:05:54.662Z,70.80
2018-07-08T03:10:51.476Z,71.40
2018-07-08T03:13:20.057Z,70.90
2018-07-08T03:15:48.692Z,70.50
2018-07-08T03:18:17.306Z,70.90
2018-07-08T03:20:45.871Z,72.00
2018-07-08T03:23:14.470Z,72.00
2018-07-08T03:25:43.036Z,72.30
2018-07-08T03:28:11.644Z,72.10
2018-07-08T03:30:40.306Z,71.60
2018-07-08T03:33:08.872Z,72.00
2018-07-08T03:35:37.498Z,71.80
2018-07-08T03:38:06.371Z,72.00
2018-07-08T03:40:34.932Z,71.30
2018-07-08T03:43:03.493Z,71.30
2018-07-08T03:45:32.102Z,71.60
2018-07-08T03:48:00.723Z,71.60
2018-07-08T03:50:29.403Z,71.80
2018-07-08T03:52:57.951Z,71.50
2018-07-08T03:55:26.531Z,72.00
2018-07-08T03:57:55.098Z,71.80
2018-07-08T04:00:23.710Z,72.30
2018-07-08T04:02:52.316Z,72.10
2018-07-08T04:05:21.552Z,72.40
2018-07-08T04:07:50.143Z,72.10
2018-07-08T04:10:18.711Z,71.40
2018-07-08T04:12:47.536Z,71.30
2018-07-08T04:15:16.414Z,70.80
2018-07-08T04:17:44.956Z,71.00
2018-07-08T04:20:13.575Z,71.30
2018-07-08T04:22:42.128Z,71.40
2018-07-08T04:25:10.860Z,71.60
2018-07-08T04:27:40.177Z,72.40
2018-07-08T04:30:08.743Z,72.40
2018-07-08T04:32:37.335Z,71.60
2018-07-08T04:35:05.926Z,71.20
2018-07-08T04:37:34.529Z,71.70
2018-07-08T04:40:03.124Z,72.30
2018-07-08T04:42:31.692Z,72.00
2018-07-08T04:45:00.255Z,71.80
2018-07-08T04:47:28.808Z,72.00
2018-07-08T04:49:57.416Z,71.70
2018-07-08T04:52:25.975Z,71.80
2018-07-08T04:54:54.555Z,71.70
2018-07-08T04:57:23.103Z,71.50
2018-07-08T04:59:51.652Z,71.60
2018-07-08T05:02:20.247Z,71.40
2018-07-08T05:04:48.840Z,71.60
2018-07-08T05:07:18.474Z,71.80
2018-07-08T05:09:47.023Z,71.80
2018-07-08T05:12:15.580Z,72.10
2018-07-08T05:14:44.186Z,72.40
2018-07-08T05:17:12.939Z,72.00
2018-07-08T05:19:41.822Z,71.30
2018-07-08T05:22:10.607Z,71.60
2018-07-08T05:24:39.173Z,71.40
2018-07-08T05:27:07.772Z,71.80
2018-07-08T05:29:36.422Z,71.90
2018-07-08T05:32:05.190Z,72.60
2018-07-08T05:34:33.752Z,72.00
2018-07-08T05:37:02.396Z,72.30
2018-07-08T05:39:31.007Z,72.60
2018-07-08T05:41:59.574Z,72.60
2018-07-08T05:44:28.165Z,72.50
2018-07-08T05:46:56.735Z,72.70
2018-07-08T05:49:25.351Z,72.50
2018-07-08T05:51:54.007Z,72.10
2018-07-08T05:54:22.612Z,72.00
2018-07-08T05:56:51.174Z,72.00
2018-07-08T05:59:19.893Z,72.20
2018-07-08T06:01:48.561Z,72.30
2018-07-08T06:04:17.168Z,72.50
2018-07-08T06:06:46.544Z,71.80
2018-07-08T06:09:15.213Z,71.80
2018-07-08T06:11:43.780Z,72.00
2018-07-08T06:14:12.380Z,72.40
2018-07-08T06:16:41.030Z,71.60
2018-07-08T06:19:09.583Z,71.20
2018-07-08T06:21:38.184Z,71.10
2018-07-08T06:24:06.992Z,71.10
2018-07-08T06:26:35.555Z,71.50
2018-07-08T06:29:04.195Z,70.90
2018-07-08T06:31:32.800Z,71.60
2018-07-08T06:34:01.417Z,71.20
2018-07-08T06:36:29.991Z,71.70
2018-07-08T06:38:58.572Z,71.40
2018-07-08T06:41:27.183Z,71.70
2018-07-08T06:43:55.799Z,70.90
2018-07-08T06:46:24.367Z,70.60
2018-07-08T06:48:52.947Z,70.40
2018-07-08T06:51:21.538Z,70.60
2018-07-08T06:53:50.180Z,70.20
2018-07-08T06:56:18.756Z,70.00
2018-07-08T06:58:47.343Z,69.60
2018-07-08T07:01:15.899Z,69.10
2018-07-08T07:03:44.479Z,67.90
2018-07-08T07:06:13.180Z,68.70
2018-07-08T07:08:41.744Z,68.10
2018-07-08T07:11:10.385Z,68.30
2018-07-08T07:13:38.962Z,67.90
2018-07-08T07:16:07.699Z,64.90
2018-07-08T07:18:36.357Z,66.40
2018-07-08T07:21:05.875Z,65.60
2018-07-08T07:23:34.541Z,66.40
2018-07-08T07:26:03.099Z,64.60
2018-07-08T07:28:31.684Z,65.10
2018-07-08T07:31:00.301Z,64.80
2018-07-08T07:33:28.863Z,64.80
2018-07-08T07:35:57.454Z,64.50
2018-07-08T07:38:26.048Z,60.20
2018-07-08T07:40:54.655Z,61.00
2018-07-08T07:43:23.272Z,61.50
2018-07-08T07:45:51.899Z,61.70
2018-07-08T07:48:20.456Z,58.80
2018-07-08T07:50:49.016Z,57.70
2018-07-08T07:53:17.777Z,55.90
2018-07-08T07:55:46.398Z,56.90
2018-07-08T07:58:14.974Z,56.90
2018-07-08T08:00:43.544Z,57.60
2018-07-08T08:03:12.160Z,56.90
2018-07-08T08:05:40.728Z,56.50
2018-07-08T08:08:09.455Z,57.00
2018-07-08T08:10:38.069Z,55.60
2018-07-08T08:13:06.682Z,56.50
2018-07-08T08:15:35.236Z,57.50
2018-07-08T08:18:03.793Z,57.00
2018-07-08T08:20:32.401Z,57.20
2018-07-08T08:23:01.016Z,57.10
2018-07-08T08:25:29.617Z,57.10
2018-07-08T08:27:58.309Z,55.70
2018-07-08T08:30:26.897Z,55.30
2018-07-08T08:32:55.511Z,55.30
2018-07-08T08:35:24.077Z,54.20
2018-07-08T08:40:24.189Z,54.80
2018-07-08T08:42:53.292Z,54.00
2018-07-08T08:45:22.905Z,54.00
2018-07-08T08:50:20.867Z,51.50
2018-07-08T08:52:49.475Z,51.40
2018-07-08T08:55:18.157Z,51.30
2018-07-08T08:57:46.752Z,51.90
2018-07-08T09:00:17.806Z,52.10
2018-07-08T09:02:46.395Z,50.50
2018-07-08T09:05:14.972Z,50.20
2018-07-08T09:07:43.609Z,50.60
2018-07-08T09:10:12.251Z,50.60
2018-07-08T09:12:40.831Z,49.80
2018-07-08T09:15:09.406Z,51.30
2018-07-08T09:17:37.976Z,52.30
2018-07-08T09:20:06.977Z,50.80
2018-07-08T09:22:35.567Z,49.70
2018-07-08T09:25:04.148Z,50.20
2018-07-08T09:27:32.751Z,50.30
2018-07-08T09:30:01.320Z,50.50
2018-07-08T09:32:29.931Z,49.40
2018-07-08T09:34:58.551Z,49.20
2018-07-08T09:37:27.114Z,50.00
2018-07-08T09:39:55.739Z,49.70
2018-07-08T09:42:24.384Z,49.90
2018-07-08T09:44:52.942Z,49.30
2018-07-08T09:47:21.612Z,50.00
2018-07-08T09:49:50.188Z,49.60
2018-07-08T09:52:18.801Z,48.50
2018-07-08T09:54:47.416Z,46.80
2018-07-08T09:57:16.039Z,46.40
2018-07-08T09:59:44.632Z,46.30
2018-07-08T10:02:13.204Z,46.30
2018-07-08T10:04:41.919Z,46.50
2018-07-08T10:07:10.479Z,46.60
2018-07-08T10:09:39.057Z,45.60
2018-07-08T10:12:08.015Z,46.00
2018-07-08T10:14:36.587Z,45.60
2018-07-08T10:17:05.923Z,45.60
2018-07-08T10:19:34.632Z,44.40
2018-07-08T10:22:03.200Z,44.90
2018-07-08T10:24:31.800Z,43.90
2018-07-08T10:27:10.384Z,44.20
2018-07-08T10:29:39.051Z,43.60
2018-07-08T10:32:07.888Z,44.10
2018-07-08T10:34:36.508Z,44.00
2018-07-08T10:37:05.181Z,44.20
2018-07-08T10:39:33.758Z,43.70
2018-07-08T10:42:02.344Z,43.10
2018-07-08T10:44:30.955Z,43.30
2018-07-08T10:46:59.555Z,42.30
2018-07-08T10:49:28.175Z,41.90
2018-07-08T10:51:56.812Z,42.50
2018-07-08T10:54:25.456Z,42.90
2018-07-08T10:56:54.071Z,42.10
2018-07-08T10:59:22.701Z,43.00
2018-07-08T11:01:51.460Z,42.10
2018-07-08T11:04:19.995Z,42.30
2018-07-08T11:06:48.660Z,42.50
2018-07-08T11:09:17.331Z,41.50
2018-07-08T11:11:45.983Z,41.20
2018-07-08T11:14:14.618Z,40.90
2018-07-08T11:16:43.300Z,40.90
2018-07-08T11:19:11.913Z,41.20
2018-07-08T11:21:40.502Z,40.80
2018-07-08T11:24:09.344Z,41.30
2018-07-08T11:26:37.976Z,41.50
2018-07-08T11:29:06.565Z,40.70
2018-07-08T11:34:03.376Z,40.30
2018-07-08T11:36:32.000Z,39.80
2018-07-08T11:39:00.708Z,40.00
2018-07-08T11:41:29.521Z,39.60
2018-07-08T11:43:58.180Z,38.90
2018-07-08T11:46:26.740Z,38.80
2018-07-08T11:51:23.565Z,39.10
2018-07-08T11:53:52.219Z,38.20
2018-07-08T11:56:20.914Z,39.40
2018-07-08T11:58:49.535Z,39.00
2018-07-08T12:01:18.264Z,39.00
2018-07-08T12:03:46.899Z,38.50
2018-07-08T12:06:15.496Z,38.40
2018-07-08T12:08:44.137Z,38.40
2018-07-08T12:11:12.798Z,37.10
2018-07-08T12:13:41.449Z,37.90
2018-07-08T12:16:10.216Z,37.80
2018-07-08T12:18:38.780Z,37.10
2018-07-08T12:21:07.385Z,38.60
2018-07-08T12:23:39.737Z,38.30
2018-07-08T12:26:08.440Z,37.40
2018-07-08T12:28:37.008Z,37.80
2018-07-08T12:31:05.642Z,37.80
2018-07-08T12:33:34.484Z,37.10
2018-07-08T12:36:03.173Z,36.60
2018-07-08T12:38:31.779Z,37.90
2018-07-08T12:41:00.394Z,37.90
2018-07-08T12:43:28.975Z,37.60
2018-07-08T12:45:57.748Z,36.70
2018-07-08T12:48:26.337Z,36.10
2018-07-08T12:50:54.940Z,36.20
2018-07-08T12:53:23.519Z,36.30
2018-07-08T12:55:52.137Z,35.10
2018-07-08T12:58:20.775Z,35.70
2018-07-08T13:00:49.496Z,36.30
2018-07-08T13:03:18.111Z,37.00
2018-07-08T13:05:46.672Z,36.30
2018-07-08T13:08:15.251Z,36.70
2018-07-08T13:10:43.827Z,37.90
2018-07-08T13:13:12.379Z,37.10
2018-07-08T13:15:40.991Z,37.10
2018-07-08T13:20:37.936Z,36.40
2018-07-08T13:23:06.549Z,36.60
2018-07-08T13:25:35.280Z,35.90
2018-07-08T13:28:03.905Z,35.70
2018-07-08T13:30:32.499Z,35.50
2018-07-08T13:33:01.070Z,36.80
2018-07-08T13:35:29.680Z,35.40
2018-07-08T13:37:58.264Z,35.50
2018-07-08T13:40:26.888Z,35.40
2018-07-08T13:42:55.560Z,36.90
2018-07-08T13:45:25.107Z,35.60
2018-07-08T13:47:53.704Z,36.30
2018-07-08T13:50:22.344Z,36.20
2018-07-08T13:52:51.084Z,35.60
2018-07-08T13:55:19.971Z,34.90
2018-07-08T13:57:48.680Z,35.80
2018-07-08T14:00:17.256Z,34.90
2018-07-08T14:02:45.843Z,36.00
2018-07-08T14:05:14.462Z,35.20
2018-07-08T14:07:43.539Z,37.00
2018-07-08T14:10:12.140Z,36.20
2018-07-08T14:12:40.800Z,37.10
2018-07-08T14:15:09.401Z,36.00
2018-07-08T14:17:38.021Z,36.30
2018-07-08T14:20:06.750Z,36.80
2018-07-08T14:22:35.327Z,37.10
2018-07-08T14:25:04.075Z,37.10
2018-07-08T14:27:32.820Z,36.80
2018-07-08T14:30:03.597Z,36.20
2018-07-08T14:32:32.272Z,36.80
2018-07-08T14:35:01.380Z,37.40
2018-07-08T14:37:30.349Z,37.60
2018-07-08T14:39:59.039Z,38.20
2018-07-08T14:42:27.656Z,38.30
2018-07-08T14:44:56.272Z,38.30
2018-07-08T14:47:24.860Z,38.50
2018-07-08T14:50:02.769Z,38.80
2018-07-08T14:52:43.145Z,38.20
2018-07-08T14:55:28.409Z,38.60
2018-07-08T14:58:13.072Z,39.60
2018-07-08T15:00:42.251Z,40.40
2018-07-08T15:03:10.916Z,39.90
2018-07-08T15:05:39.541Z,40.60
2018-07-08T15:08:08.342Z,40.40
2018-07-08T15:10:38.589Z,41.10
2018-07-08T15:13:15.129Z,41.30
2018-07-08T15:15:47.454Z,40.90
2018-07-08T15:18:16.908Z,42.10
2018-07-08T15:20:45.520Z,43.20
2018-07-08T15:23:14.228Z,41.80
2018-07-08T15:25:43.834Z,42.40
2018-07-08T15:28:12.436Z,41.00
2018-07-08T15:30:41.057Z,41.10
2018-07-08T15:33:12.406Z,41.80
2018-07-08T15:35:41.431Z,42.30
2018-07-08T15:38:10.420Z,42.10
2018-07-08T15:40:45.454Z,41.70
2018-07-08T15:43:24.524Z,42.20
2018-07-08T15:45:53.250Z,42.80
2018-07-08T15:48:21.871Z,43.50
2018-07-08T15:53:18.994Z,43.10
2018-07-08T15:55:49.059Z,42.60
2018-07-08T15:58:21.715Z,42.90
2018-07-08T16:00:50.935Z,42.50
2018-07-08T16:03:19.546Z,42.80
2018-07-08T16:05:48.123Z,42.70
2018-07-08T16:08:16.701Z,43.30
2018-07-08T16:10:45.343Z,42.80
2018-07-08T16:13:13.917Z,43.60
2018-07-08T16:15:43.579Z,43.90
2018-07-08T16:20:53.976Z,44.90
2018-07-08T16:23:22.623Z,43.10
2018-07-08T16:25:51.234Z,42.90
2018-07-08T16:28:19.825Z,44.00
2018-07-08T16:30:48.397Z,43.10
2018-07-08T16:33:16.988Z,42.30
2018-07-08T16:35:48.327Z,42.20
2018-07-08T16:40:45.223Z,41.80
2018-07-08T16:43:15.947Z,41.90
2018-07-08T16:45:46.826Z,42.40
2018-07-08T16:48:15.551Z,43.20
2018-07-08T16:50:44.129Z,43.40
2018-07-08T16:53:12.740Z,43.50
2018-07-08T16:55:41.403Z,43.70
2018-07-08T16:58:10.047Z,44.00
2018-07-08T17:00:38.942Z,44.50
2018-07-08T17:03:08.661Z,44.10
2018-07-08T17:05:40.684Z,43.90
2018-07-08T17:08:09.650Z,44.40
2018-07-08T17:10:38.214Z,43.20
2018-07-08T17:13:06.921Z,44.00
2018-07-08T17:15:35.585Z,45.10
2018-07-08T17:18:05.802Z,44.00
2018-07-08T17:20:34.442Z,43.90
2018-07-08T17:23:03.210Z,44.50
2018-07-08T17:25:31.824Z,44.00
2018-07-08T17:28:00.455Z,44.30
2018-07-08T17:30:29.041Z,44.30
2018-07-08T17:32:57.647Z,45.00
2018-07-08T17:35:28.319Z,44.90
2018-07-08T17:37:59.612Z,44.30
2018-07-08T17:44:25.764Z,44.70
2018-07-08T17:46:54.554Z,45.10
2018-07-08T17:49:24.377Z,45.30
2018-07-08T17:51:53.527Z,44.00
2018-07-08T17:56:50.728Z,45.20
2018-07-08T17:59:19.522Z,46.10
2018-07-08T18:01:48.083Z,46.80
2018-07-08T18:04:16.683Z,46.90
2018-07-08T18:06:45.436Z,47.60
2018-07-08T18:09:14.217Z,46.70
2018-07-08T18:11:43.622Z,47.00
2018-07-08T18:14:12.297Z,47.40
2018-07-08T18:16:40.896Z,46.80
2018-07-08T18:19:09.562Z,47.20
2018-07-08T18:21:38.191Z,47.80
2018-07-08T18:24:06.976Z,47.80
2018-07-08T18:26:36.021Z,47.50
2018-07-08T18:29:04.818Z,48.20
2018-07-08T18:31:33.610Z,47.70
2018-07-08T18:34:02.205Z,48.00
2018-07-08T18:36:30.843Z,48.00
2018-07-08T18:38:59.475Z,47.00
2018-07-08T18:41:28.075Z,48.20
2018-07-08T18:43:57.284Z,48.40
2018-07-08T18:46:26.612Z,48.50
2018-07-08T18:48:55.389Z,49.00
2018-07-08T18:51:24.478Z,49.00
2018-07-08T18:53:53.092Z,48.80
2018-07-08T18:56:21.744Z,48.90
2018-07-08T18:58:52.191Z,48.70
2018-07-08T19:01:22.422Z,48.30
2018-07-08T19:03:52.175Z,49.50
2018-07-08T19:06:20.814Z,49.40
2018-07-08T19:08:50.848Z,48.60
2018-07-08T19:11:19.491Z,49.30
2018-07-08T19:13:48.108Z,49.40
2018-07-08T19:16:16.697Z,49.70
2018-07-08T19:18:45.351Z,50.00
2018-07-08T19:21:13.972Z,50.00
2018-07-08T19:23:42.954Z,50.40
2018-07-08T19:26:11.947Z,50.70
2018-07-08T19:28:40.592Z,50.90
2018-07-08T19:31:09.864Z,51.10
2018-07-08T19:33:38.588Z,51.10
2018-07-08T19:36:07.277Z,51.90
2018-07-08T19:38:35.986Z,52.10
2018-07-08T19:41:04.556Z,52.50
2018-07-08T19:43:33.168Z,52.60
2018-07-08T19:46:01.808Z,52.90
2018-07-08T19:48:30.391Z,53.20
2018-07-08T19:50:59.046Z,54.10
2018-07-08T19:53:27.697Z,53.50
2018-07-08T19:55:56.285Z,53.60
2018-07-08T19:58:24.899Z,54.30
2018-07-08T20:00:53.657Z,53.40
2018-07-08T20:05:50.824Z,53.30
2018-07-08T20:08:19.475Z,54.50
2018-07-08T20:10:48.127Z,54.60
2018-07-08T20:13:16.724Z,54.60
2018-07-08T20:15:45.369Z,55.10
2018-07-08T20:18:14.044Z,55.60
2018-07-08T20:20:42.628Z,54.60
2018-07-08T20:23:11.425Z,56.20
2018-07-08T20:25:40.045Z,55.80
2018-07-08T20:28:08.676Z,56.60
2018-07-08T20:30:37.268Z,56.80
2018-07-08T20:33:05.891Z,56.20
2018-07-08T20:35:34.772Z,57.20
2018-07-08T20:38:03.328Z,57.30
2018-07-08T20:43:00.952Z,57.70
2018-07-08T20:45:29.541Z,57.20
2018-07-08T20:47:58.120Z,57.40
2018-07-08T20:50:26.763Z,57.50
2018-07-08T20:52:55.388Z,57.50
2018-07-08T20:55:24.307Z,57.00
2018-07-08T20:57:53.015Z,57.60
2018-07-08T21:00:21.639Z,57.40
2018-07-08T21:02:50.233Z,57.70
2018-07-08T21:05:19.232Z,58.10
2018-07-08T21:07:47.796Z,58.20
2018-07-08T21:10:16.663Z,58.10
2018-07-08T21:12:45.332Z,58.50
2018-07-08T21:15:13.872Z,58.90
2018-07-08T21:17:42.518Z,59.30
2018-07-08T21:20:11.424Z,59.50
2018-07-08T21:22:40.025Z,59.40
2018-07-08T21:25:09.181Z,60.00
2018-07-08T21:27:37.892Z,60.50
2018-07-08T21:30:06.525Z,60.60
2018-07-08T21:32:35.403Z,61.10
2018-07-08T21:35:03.972Z,61.30
2018-07-08T21:37:32.535Z,62.20
2018-07-08T21:40:01.137Z,62.10
2018-07-08T21:42:29.782Z,62.80
2018-07-08T21:47:26.835Z,63.40
2018-07-08T21:49:55.403Z,63.50
2018-07-08T21:52:23.999Z,63.60
2018-07-08T21:54:52.599Z,64.70
2018-07-08T21:59:49.492Z,65.30
2018-07-08T22:02:20.023Z,65.40
2018-07-08T22:04:48.720Z,65.90
2018-07-08T22:07:22.598Z,66.10
2018-07-08T22:09:52.120Z,65.70
2018-07-08T22:12:20.733Z,65.90
2018-07-08T22:14:49.395Z,65.30
2018-07-08T22:17:17.983Z,65.60
2018-07-08T22:19:46.756Z,65.70
2018-07-08T22:22:15.380Z,65.10
2018-07-08T22:24:44.067Z,66.70
2018-07-08T22:27:12.671Z,66.10
2018-07-08T22:29:41.321Z,67.00
2018-07-08T22:32:09.943Z,67.10
2018-07-08T22:34:38.623Z,67.20
2018-07-08T22:37:07.468Z,67.00
2018-07-08T22:39:36.128Z,67.70
2018-07-08T22:42:04.733Z,68.30
2018-07-08T22:44:33.440Z,68.60
2018-07-08T22:47:02.040Z,69.10
2018-07-08T22:49:30.643Z,69.10
2018-07-08T22:51:59.247Z,69.40
2018-07-08T22:54:27.988Z,69.40
2018-07-08T22:56:56.580Z,70.00
2018-07-08T22:59:25.226Z,70.00
2018-07-08T23:02:04.963Z,70.10
2018-07-08T23:04:33.612Z,70.50
2018-07-08T23:07:02.193Z,70.70
2018-07-08T23:09:30.819Z,71.00
2018-07-08T23:11:59.502Z,70.80
2018-07-08T23:14:28.184Z,71.30
2018-07-08T23:16:56.815Z,71.20
2018-07-08T23:19:25.458Z,71.50
2018-07-08T23:21:54.068Z,71.80
2018-07-08T23:24:22.675Z,72.20
2018-07-08T23:26:51.265Z,72.50
2018-07-08T23:29:19.871Z,72.50
2018-07-08T23:31:48.699Z,72.60
2018-07-08T23:34:17.545Z,73.10
2018-07-08T23:36:46.147Z,72.90
2018-07-08T23:39:14.736Z,73.20
2018-07-08T23:41:43.497Z,73.20
2018-07-08T23:44:12.135Z,73.50
2018-07-08T23:49:09.026Z,73.50
2018-07-08T23:51:37.644Z,73.40
2018-07-08T23:54:06.536Z,73.40
2018-07-08T23:56:35.166Z,73.40
2018-07-08T23:59:03.920Z,73.40
